This is the latest recevied weather packets stored in our database for station/object GW1479. If no packets are shown the sender has not sent any weather packets the latest 10 day(s).
| Time | Temp. | Humidity | Pressure | Rain* | Wind** | Luminosity | Snow |
|---|---|---|---|---|---|---|---|
| 1777699821 | 4.44° C | 98% | 1016.2 hPa | 0 mm | - | - | - |
| 1777698388 | 5° C | 98% | 1016.2 hPa | 0 mm | - | - | - |
| 1777695875 | 6.67° C | 95% | 1015.9 hPa | 0 mm | - | - | - |
| 1777691175 | 8.89° C | 86% | 1015.5 hPa | 0.25 mm | - | - | - |
| 1777681112 | 10.56° C | 92% | 1012.8 hPa | 0 mm | - | - | - |
| 1777680766 | 10.56° C | 92% | 1012.8 hPa | 0 mm | - | - | - |
| 1777679693 | 11.11° C | 91% | 1012.5 hPa | 0 mm | - | - | - |
| 1777678973 | 11.11° C | 89% | 1012.1 hPa | 0 mm | - | - | - |
| 1777674654 | 12.78° C | 75% | 1012.1 hPa | 0 mm | - | - | - |
| 1777671758 | 13.89° C | 68% | 1011.5 hPa | 0 mm | - | - | - |
| 1777661321 | 19.44° C | 39% | 1010.4 hPa | 0 mm | - | - | - |
| 1777660943 | 18.33° C | 40% | 1010.4 hPa | 0 mm | - | - | - |
| 1777658813 | 18.33° C | 47% | 1010.4 hPa | 0 mm | - | - | - |
| 1777653757 | 15.56° C | 52% | 1011.8 hPa | 0 mm | - | - | - |
| 1777646530 | 13.33° C | 59% | 1013.5 hPa | 0 mm | - | - | - |
| 1777645821 | 13.33° C | 68% | 1013.8 hPa | 0 mm | - | - | - |
| 1777645450 | 13.89° C | 74% | 1013.5 hPa | 0 mm | - | - | - |
| 1777643291 | 12.22° C | 86% | 1013.5 hPa | 0 mm | - | - | - |
| 1777639339 | 7.78° C | 97% | 1014.2 hPa | 0 mm | - | - | - |
| 1777638989 | 6.67° C | 99% | 1014.5 hPa | 0 mm | - | - | - |
| 1777638616 | 6.67° C | 99% | 1014.5 hPa | 0 mm | - | - | - |
| 1777630365 | 1.11° C | 99% | 1015.2 hPa | 0 mm | - | - | - |
| 1777629263 | 1.11° C | 99% | 1014.9 hPa | 0 mm | - | - | - |
| 1777628901 | 1.67° C | 99% | 1014.9 hPa | 0 mm | - | - | - |
| 1777626758 | 1.67° C | 99% | 1014.9 hPa | 0 mm | - | - | - |
* Rain since midnight (hover to see other rain measurements)
** Current wind speed in m/s (hover to see current wind gust speed)